createdAt,value
2019-03-26T00:00:41.353Z,7.10
2019-03-26T00:01:41.325Z,6.40
2019-03-26T00:02:41.317Z,6.30
2019-03-26T00:03:41.332Z,6.80
2019-03-26T00:04:41.291Z,8.40
2019-03-26T00:05:41.876Z,8.70
2019-03-26T00:06:41.264Z,6.50
2019-03-26T00:07:41.263Z,7.10
2019-03-26T00:08:41.242Z,6.80
2019-03-26T00:09:41.227Z,6.70
2019-03-26T00:10:41.257Z,6.90
2019-03-26T00:11:41.219Z,7.10
2019-03-26T00:12:41.193Z,6.80
2019-03-26T00:13:41.180Z,7.20
2019-03-26T00:14:41.179Z,6.60
2019-03-26T00:15:41.179Z,7.20
2019-03-26T00:16:41.188Z,7.00
2019-03-26T00:17:41.136Z,7.00
2019-03-26T00:18:41.250Z,8.50
2019-03-26T00:19:41.117Z,7.40
2019-03-26T00:20:41.118Z,10.20
2019-03-26T00:21:41.133Z,7.10
2019-03-26T00:22:41.103Z,8.40
2019-03-26T00:23:41.096Z,7.60
2019-03-26T00:24:41.082Z,8.10
2019-03-26T00:25:41.085Z,7.30
2019-03-26T00:26:41.042Z,8.10
2019-03-26T00:27:41.043Z,6.90
2019-03-26T00:28:41.068Z,7.70
2019-03-26T00:29:41.000Z,9.80
2019-03-26T00:30:41.052Z,10.60
2019-03-26T00:31:41.032Z,7.10
2019-03-26T00:32:40.986Z,7.20
2019-03-26T00:33:40.998Z,7.80
2019-03-26T00:34:40.956Z,8.30
2019-03-26T00:35:40.963Z,9.40
2019-03-26T00:36:40.939Z,9.00
2019-03-26T00:37:40.914Z,8.00
2019-03-26T00:38:41.001Z,7.30
2019-03-26T00:39:40.924Z,7.80
2019-03-26T00:40:40.952Z,8.40
2019-03-26T00:41:40.970Z,8.10
2019-03-26T00:42:40.863Z,8.30
2019-03-26T00:43:40.866Z,7.80
2019-03-26T00:44:40.847Z,8.20
2019-03-26T00:45:40.866Z,7.80
2019-03-26T00:46:40.812Z,7.60
2019-03-26T00:47:40.806Z,7.40
2019-03-26T00:48:40.789Z,7.20
2019-03-26T00:49:40.796Z,7.40
2019-03-26T00:50:40.769Z,7.90
2019-03-26T00:51:40.774Z,8.90
2019-03-26T00:52:40.762Z,7.90
2019-03-26T00:53:40.731Z,8.10
2019-03-26T00:54:40.718Z,8.10
2019-03-26T00:55:40.740Z,8.20
2019-03-26T00:56:40.744Z,7.40
2019-03-26T00:57:40.688Z,8.00
2019-03-26T00:58:40.760Z,8.00
2019-03-26T00:59:40.676Z,8.20
2019-03-26T01:00:40.655Z,7.50
2019-03-26T01:01:40.662Z,8.00
2019-03-26T01:02:40.664Z,7.10
2019-03-26T01:03:40.618Z,8.60
2019-03-26T01:04:40.611Z,9.20
2019-03-26T01:05:40.602Z,7.80
2019-03-26T01:06:40.744Z,8.00
2019-03-26T01:07:40.576Z,8.50
2019-03-26T01:08:40.567Z,8.40
2019-03-26T01:09:40.557Z,7.70
2019-03-26T01:10:40.544Z,16.80
2019-03-26T01:11:40.566Z,14.90
2019-03-26T01:12:40.529Z,14.20
2019-03-26T01:13:40.513Z,14.30
2019-03-26T01:14:40.506Z,11.70
2019-03-26T01:15:40.486Z,13.90
2019-03-26T01:16:40.493Z,11.20
2019-03-26T01:17:40.467Z,11.10
2019-03-26T01:18:40.487Z,9.80
2019-03-26T01:19:40.445Z,9.20
2019-03-26T01:20:40.425Z,8.50
2019-03-26T01:21:40.447Z,8.00
2019-03-26T01:22:40.454Z,12.50
2019-03-26T01:23:40.426Z,10.60
2019-03-26T01:24:40.419Z,8.50
2019-03-26T01:25:40.387Z,8.40
2019-03-26T01:26:40.390Z,10.50
2019-03-26T01:27:40.386Z,9.30
2019-03-26T01:28:40.342Z,9.20
2019-03-26T01:29:40.342Z,8.80
2019-03-26T01:30:40.323Z,8.60
2019-03-26T01:31:40.341Z,7.20
2019-03-26T01:32:40.298Z,10.10
2019-03-26T01:33:40.285Z,13.70
2019-03-26T01:34:45.829Z,17.40
2019-03-26T01:35:41.263Z,12.50
2019-03-26T01:36:40.304Z,11.30
2019-03-26T01:37:40.246Z,9.90
2019-03-26T01:38:40.238Z,9.00
2019-03-26T01:39:40.233Z,11.60
2019-03-26T01:40:40.214Z,13.70
2019-03-26T01:41:40.277Z,14.40
2019-03-26T01:42:40.207Z,10.20
2019-03-26T01:43:40.181Z,10.70
2019-03-26T01:44:40.167Z,8.80
2019-03-26T01:45:40.163Z,12.00
2019-03-26T01:46:40.157Z,11.30
2019-03-26T01:47:40.167Z,9.40
2019-03-26T01:48:40.128Z,7.70
2019-03-26T01:49:40.111Z,8.20
2019-03-26T01:50:40.105Z,8.10
2019-03-26T01:51:40.093Z,8.90
2019-03-26T01:52:40.108Z,7.50
2019-03-26T01:53:40.074Z,8.10
2019-03-26T01:54:40.059Z,8.20
2019-03-26T01:55:40.055Z,8.20
2019-03-26T01:56:40.029Z,8.10
2019-03-26T01:57:40.039Z,7.80
2019-03-26T01:58:40.059Z,10.30
2019-03-26T01:59:40.003Z,9.20
2019-03-26T02:00:39.981Z,8.80
2019-03-26T02:01:39.975Z,8.30
2019-03-26T02:02:39.983Z,8.40
2019-03-26T02:03:39.982Z,9.60
2019-03-26T02:04:39.941Z,8.30
2019-03-26T02:05:39.931Z,8.90
2019-03-26T02:06:39.945Z,8.30
2019-03-26T02:07:39.931Z,10.00
2019-03-26T02:08:39.909Z,9.60
2019-03-26T02:09:39.903Z,8.90
2019-03-26T02:10:39.877Z,7.40
2019-03-26T02:11:39.867Z,8.50
2019-03-26T02:12:39.879Z,8.50
2019-03-26T02:13:39.841Z,9.70
2019-03-26T02:14:39.836Z,7.90
2019-03-26T02:15:39.817Z,10.80
2019-03-26T02:16:39.813Z,10.30
2019-03-26T02:17:39.809Z,12.00
2019-03-26T02:18:39.798Z,8.40
2019-03-26T02:19:39.790Z,9.30
2019-03-26T02:20:39.781Z,8.90
2019-03-26T02:21:39.751Z,8.80
2019-03-26T02:22:39.755Z,11.30
2019-03-26T02:23:39.729Z,8.50
2019-03-26T02:24:39.715Z,10.00
2019-03-26T02:25:39.734Z,9.20
2019-03-26T02:26:39.716Z,8.60
2019-03-26T02:27:39.735Z,9.50
2019-03-26T02:28:39.673Z,11.40
2019-03-26T02:29:39.670Z,10.70
2019-03-26T02:30:39.663Z,10.10
2019-03-26T02:31:39.651Z,11.00
2019-03-26T02:32:39.659Z,11.70
2019-03-26T02:33:39.627Z,10.30
2019-03-26T02:34:39.613Z,9.70
2019-03-26T02:35:39.590Z,8.90
2019-03-26T02:36:39.591Z,10.30
2019-03-26T02:37:39.610Z,11.00
2019-03-26T02:38:39.574Z,8.40
2019-03-26T02:39:39.550Z,11.00
2019-03-26T02:40:39.540Z,10.90
2019-03-26T02:41:39.523Z,11.50
2019-03-26T02:42:39.539Z,9.00
2019-03-26T02:43:39.544Z,10.20
2019-03-26T02:44:39.499Z,9.20
2019-03-26T02:45:39.485Z,12.20
2019-03-26T02:46:39.467Z,9.00
2019-03-26T02:47:39.487Z,8.30
2019-03-26T02:48:39.481Z,9.30
2019-03-26T02:49:39.454Z,8.10
2019-03-26T02:50:39.430Z,11.20
2019-03-26T02:51:39.421Z,9.80
2019-03-26T02:52:39.421Z,8.70
2019-03-26T02:53:39.401Z,10.50
2019-03-26T02:54:39.411Z,10.00
2019-03-26T02:55:39.371Z,8.90
2019-03-26T02:56:39.361Z,9.10
2019-03-26T02:57:39.367Z,8.90
2019-03-26T02:58:39.336Z,10.30
2019-03-26T02:59:39.349Z,10.00
2019-03-26T03:00:39.314Z,9.40
2019-03-26T03:01:39.314Z,7.60
2019-03-26T03:02:39.322Z,8.00
2019-03-26T03:03:39.281Z,9.20
2019-03-26T03:04:39.277Z,9.40
2019-03-26T03:05:39.255Z,7.10
2019-03-26T03:06:39.256Z,10.10
2019-03-26T03:07:39.266Z,6.80
2019-03-26T03:08:39.225Z,9.40
2019-03-26T03:09:39.212Z,9.60
2019-03-26T03:10:39.214Z,8.80
2019-03-26T03:11:39.193Z,7.90
2019-03-26T03:12:39.199Z,7.80
2019-03-26T03:13:39.173Z,9.20
2019-03-26T03:14:39.168Z,9.00
2019-03-26T03:15:39.149Z,10.20
2019-03-26T03:16:39.164Z,8.50
2019-03-26T03:17:39.164Z,8.10
2019-03-26T03:18:39.117Z,7.70
2019-03-26T03:19:39.216Z,6.60
2019-03-26T03:20:39.170Z,9.60
2019-03-26T03:21:39.104Z,8.00
2019-03-26T03:22:39.100Z,8.30
2019-03-26T03:23:39.070Z,6.90
2019-03-26T03:24:39.044Z,8.00
2019-03-26T03:25:39.050Z,8.80
2019-03-26T03:26:39.021Z,8.10
2019-03-26T03:27:39.038Z,8.30
2019-03-26T03:28:39.011Z,9.10
2019-03-26T03:29:38.990Z,9.50
2019-03-26T03:30:38.981Z,8.30
2019-03-26T03:31:38.963Z,7.70
2019-03-26T03:32:38.960Z,11.30
2019-03-26T03:33:38.982Z,6.40
2019-03-26T03:34:38.931Z,8.10
2019-03-26T03:35:51.150Z,9.20
2019-03-26T03:36:39.917Z,8.40
2019-03-26T03:37:38.908Z,8.40
2019-03-26T03:38:41.455Z,9.80
2019-03-26T03:39:38.883Z,7.60
2019-03-26T03:40:38.874Z,6.70
2019-03-26T03:41:38.863Z,7.40
2019-03-26T03:42:38.853Z,8.70
2019-03-26T03:43:38.852Z,9.00
2019-03-26T03:44:38.848Z,7.10
2019-03-26T03:45:38.806Z,9.00
2019-03-26T03:46:38.803Z,5.90
2019-03-26T03:47:38.801Z,6.80
2019-03-26T03:48:38.808Z,7.40
2019-03-26T03:49:38.764Z,7.90
2019-03-26T03:50:38.761Z,7.10
2019-03-26T03:51:38.744Z,8.10
2019-03-26T03:52:38.737Z,6.70
2019-03-26T03:53:38.759Z,7.70
2019-03-26T03:54:38.715Z,6.10
2019-03-26T03:55:38.707Z,7.90
2019-03-26T03:56:38.695Z,8.50
2019-03-26T03:57:38.674Z,7.20
2019-03-26T03:58:38.688Z,5.50
2019-03-26T03:59:38.668Z,6.70
2019-03-26T04:00:38.657Z,8.90
2019-03-26T04:01:38.630Z,6.80
2019-03-26T04:02:38.619Z,7.30
2019-03-26T04:03:38.639Z,7.00
2019-03-26T04:04:38.604Z,5.40
2019-03-26T04:05:38.611Z,5.30
2019-03-26T04:06:38.587Z,5.60
2019-03-26T04:07:38.587Z,5.50
2019-03-26T04:08:38.592Z,5.60
2019-03-26T04:09:38.542Z,6.30
2019-03-26T04:10:38.534Z,5.50
2019-03-26T04:11:38.522Z,6.10
2019-03-26T04:12:38.521Z,5.20
2019-03-26T04:13:38.581Z,7.50
2019-03-26T04:14:38.487Z,6.40
2019-03-26T04:15:38.473Z,6.60
2019-03-26T04:16:38.472Z,6.20
2019-03-26T04:17:38.456Z,5.90
2019-03-26T04:18:38.464Z,5.70
2019-03-26T04:19:38.438Z,6.40
2019-03-26T04:20:38.428Z,6.90
2019-03-26T04:21:38.410Z,7.30
2019-03-26T04:22:38.399Z,7.10
2019-03-26T04:23:38.420Z,4.60
2019-03-26T04:24:38.394Z,6.20
2019-03-26T04:25:38.372Z,7.70
2019-03-26T04:26:38.367Z,9.60
2019-03-26T04:27:38.353Z,6.20
2019-03-26T04:28:38.362Z,5.50
2019-03-26T04:29:38.334Z,8.70
2019-03-26T04:30:38.319Z,4.30
2019-03-26T04:31:38.305Z,4.60
2019-03-26T04:32:38.289Z,6.30
2019-03-26T04:33:38.316Z,5.60
2019-03-26T04:34:38.286Z,5.80
2019-03-26T04:35:38.265Z,5.40
2019-03-26T04:36:38.260Z,6.10
2019-03-26T04:37:38.238Z,5.30
2019-03-26T04:38:38.239Z,6.00
2019-03-26T04:39:38.246Z,5.00
2019-03-26T04:40:38.211Z,7.70
2019-03-26T04:41:38.215Z,5.20
2019-03-26T04:42:38.179Z,5.90
2019-03-26T04:43:38.173Z,5.30
2019-03-26T04:44:38.170Z,6.00
2019-03-26T04:45:38.171Z,6.60
2019-03-26T04:46:38.137Z,6.90
2019-03-26T04:47:38.121Z,7.10
2019-03-26T04:48:38.116Z,4.90
2019-03-26T04:49:38.115Z,8.20
2019-03-26T04:50:38.095Z,5.90
2019-03-26T04:51:38.080Z,9.80
2019-03-26T04:52:38.078Z,6.80
2019-03-26T04:53:38.060Z,6.30
2019-03-26T04:54:38.078Z,7.20
2019-03-26T04:55:38.037Z,10.10
2019-03-26T04:56:38.038Z,7.70
2019-03-26T04:57:38.032Z,7.90
2019-03-26T04:58:38.012Z,5.90
2019-03-26T04:59:37.991Z,7.80
2019-03-26T05:00:37.997Z,9.00
2019-03-26T05:01:37.986Z,7.70
2019-03-26T05:02:37.957Z,10.80
2019-03-26T05:03:37.947Z,9.70
2019-03-26T05:04:37.965Z,10.30
2019-03-26T05:05:37.942Z,13.50
2019-03-26T05:06:38.541Z,12.40
2019-03-26T05:07:37.913Z,10.00
2019-03-26T05:08:37.902Z,9.70
2019-03-26T05:09:37.886Z,13.50
2019-03-26T05:10:37.951Z,11.10
2019-03-26T05:11:37.856Z,10.80
2019-03-26T05:12:37.846Z,11.30
2019-03-26T05:13:37.834Z,13.90
2019-03-26T05:14:37.869Z,12.90
2019-03-26T05:15:37.849Z,15.00
2019-03-26T05:16:37.794Z,16.20
2019-03-26T05:17:37.790Z,17.60
2019-03-26T05:18:37.788Z,17.00
2019-03-26T05:19:37.765Z,17.10
2019-03-26T05:20:37.785Z,15.00
2019-03-26T05:21:37.744Z,15.40
2019-03-26T05:22:37.750Z,11.90
2019-03-26T05:23:37.728Z,12.00
2019-03-26T05:24:37.726Z,11.30
2019-03-26T05:25:37.739Z,11.30
2019-03-26T05:26:37.716Z,12.40
2019-03-26T05:27:45.215Z,10.90
2019-03-26T05:28:38.674Z,16.20
2019-03-26T05:29:37.686Z,13.70
2019-03-26T05:30:37.667Z,12.70
2019-03-26T05:31:37.640Z,13.50
2019-03-26T05:32:37.647Z,18.20
2019-03-26T05:33:37.609Z,13.10
2019-03-26T05:34:37.601Z,13.20
2019-03-26T05:35:37.635Z,15.30
2019-03-26T05:36:50.426Z,14.80
2019-03-26T05:37:38.567Z,16.70
2019-03-26T05:38:37.554Z,14.80
2019-03-26T05:39:37.544Z,16.00
2019-03-26T05:40:37.561Z,16.90
2019-03-26T05:41:37.532Z,14.90
2019-03-26T05:42:37.510Z,15.40
2019-03-26T05:43:37.522Z,17.70
2019-03-26T05:44:37.500Z,20.80
2019-03-26T05:45:37.493Z,18.00
2019-03-26T05:46:37.503Z,17.60
2019-03-26T05:47:37.462Z,15.10
2019-03-26T05:48:37.452Z,18.70
2019-03-26T05:49:37.456Z,18.00
2019-03-26T05:50:37.463Z,20.40
2019-03-26T05:51:37.499Z,18.70
2019-03-26T05:52:37.530Z,18.30
2019-03-26T05:53:37.397Z,20.80
2019-03-26T05:54:37.398Z,19.90
2019-03-26T05:55:37.368Z,15.00
2019-03-26T05:56:37.426Z,20.00
2019-03-26T05:57:37.369Z,16.20
2019-03-26T05:58:37.388Z,18.20
2019-03-26T05:59:37.319Z,15.90
2019-03-26T06:00:37.324Z,16.10
2019-03-26T06:01:37.336Z,17.00
2019-03-26T06:02:37.291Z,14.40
2019-03-26T06:03:37.282Z,14.10
2019-03-26T06:04:37.274Z,17.30
2019-03-26T06:05:37.265Z,20.20
2019-03-26T06:06:37.306Z,18.90
2019-03-26T06:07:37.240Z,18.70
2019-03-26T06:08:37.224Z,16.60
2019-03-26T06:09:37.217Z,15.70
2019-03-26T06:10:37.204Z,16.10
2019-03-26T06:11:37.234Z,19.90
2019-03-26T06:12:37.190Z,19.10
2019-03-26T06:13:37.170Z,17.10
2019-03-26T06:14:37.210Z,19.10
2019-03-26T06:15:37.186Z,14.70
2019-03-26T06:16:38.551Z,21.30
2019-03-26T06:17:37.145Z,19.40
2019-03-26T06:18:37.115Z,19.80
2019-03-26T06:19:37.120Z,22.40
2019-03-26T06:20:37.112Z,19.50
2019-03-26T06:21:37.118Z,19.10
2019-03-26T06:22:37.073Z,20.80
2019-03-26T06:23:37.079Z,19.70
2019-03-26T06:24:37.051Z,22.50
2019-03-26T06:25:37.098Z,19.80
2019-03-26T06:26:37.069Z,18.30
2019-03-26T06:27:37.029Z,20.70
2019-03-26T06:28:37.020Z,19.50
2019-03-26T06:29:36.995Z,19.00
2019-03-26T06:30:36.986Z,22.60
2019-03-26T06:31:37.017Z,21.70
2019-03-26T06:32:36.984Z,19.30
2019-03-26T06:33:36.947Z,19.90
2019-03-26T06:34:37.054Z,22.80
2019-03-26T06:35:36.947Z,24.10
2019-03-26T06:36:36.918Z,24.40
2019-03-26T06:37:36.994Z,20.50
2019-03-26T06:38:36.969Z,17.70
2019-03-26T06:39:36.891Z,21.40
2019-03-26T06:40:36.981Z,23.70
2019-03-26T06:41:36.875Z,21.80
2019-03-26T06:42:36.900Z,19.00
2019-03-26T06:43:36.854Z,17.80
2019-03-26T06:44:36.840Z,20.10
2019-03-26T06:45:36.825Z,21.50
2019-03-26T06:46:36.815Z,17.80
2019-03-26T06:47:36.845Z,18.80
2019-03-26T06:48:36.877Z,24.90
2019-03-26T06:49:36.774Z,18.90
2019-03-26T06:50:36.814Z,19.30
2019-03-26T06:51:36.777Z,21.30
2019-03-26T06:52:36.787Z,17.20
2019-03-26T06:53:36.782Z,17.50
2019-03-26T06:54:36.724Z,20.00
2019-03-26T06:55:36.735Z,20.40
2019-03-26T06:56:36.717Z,18.20
2019-03-26T06:57:36.749Z,18.70
2019-03-26T06:58:36.719Z,20.50
2019-03-26T06:59:36.668Z,17.70
2019-03-26T07:00:36.649Z,21.30
2019-03-26T07:01:36.642Z,16.80
2019-03-26T07:02:36.664Z,17.20
2019-03-26T07:03:36.618Z,20.70
2019-03-26T07:04:36.610Z,19.50
2019-03-26T07:05:36.607Z,21.60
2019-03-26T07:06:36.583Z,16.30
2019-03-26T07:07:36.631Z,19.60
2019-03-26T07:08:36.583Z,16.40
2019-03-26T07:09:36.551Z,18.40
2019-03-26T07:10:36.542Z,16.70
2019-03-26T07:11:36.525Z,21.50
2019-03-26T07:12:36.544Z,18.10
2019-03-26T07:13:36.520Z,14.40
2019-03-26T07:14:36.502Z,13.20
2019-03-26T07:15:36.488Z,15.20
2019-03-26T07:16:36.512Z,17.70
2019-03-26T07:17:36.488Z,14.20
2019-03-26T07:18:36.466Z,17.90
2019-03-26T07:19:36.445Z,14.20
2019-03-26T07:20:36.428Z,18.90
2019-03-26T07:21:48.920Z,13.50
2019-03-26T07:22:37.409Z,15.30
2019-03-26T07:23:36.465Z,16.00
2019-03-26T07:24:36.401Z,23.00
2019-03-26T07:25:36.410Z,18.50
2019-03-26T07:26:36.360Z,18.00
2019-03-26T07:27:36.354Z,15.40
2019-03-26T07:28:36.393Z,13.90
2019-03-26T07:29:36.328Z,13.60
2019-03-26T07:30:36.321Z,14.00
2019-03-26T07:31:36.342Z,13.80
2019-03-26T07:32:36.299Z,11.30
2019-03-26T07:33:36.327Z,11.90
2019-03-26T07:34:36.270Z,17.60
2019-03-26T07:35:36.257Z,14.10
2019-03-26T07:36:36.244Z,16.80
2019-03-26T07:37:45.221Z,15.40
2019-03-26T07:38:37.284Z,16.40
2019-03-26T07:39:38.972Z,12.20
2019-03-26T07:40:36.214Z,13.10
2019-03-26T07:41:36.202Z,17.30
2019-03-26T07:42:36.194Z,11.40
2019-03-26T07:43:36.210Z,12.90
2019-03-26T07:44:36.182Z,12.90
2019-03-26T07:45:36.190Z,15.60
2019-03-26T07:46:36.136Z,18.70
2019-03-26T07:47:36.176Z,11.30
2019-03-26T07:48:36.202Z,14.60
2019-03-26T07:49:36.108Z,14.10
2019-03-26T07:50:36.086Z,13.30
2019-03-26T07:51:36.092Z,10.50
2019-03-26T07:52:36.070Z,14.30
2019-03-26T07:53:36.097Z,15.00
2019-03-26T07:54:36.051Z,12.10
2019-03-26T07:55:36.038Z,14.10
2019-03-26T07:56:36.023Z,13.50
2019-03-26T07:57:36.021Z,12.50
2019-03-26T07:58:36.028Z,16.30
2019-03-26T07:59:36.087Z,15.00
2019-03-26T08:00:35.993Z,14.50
2019-03-26T08:01:35.981Z,15.20
2019-03-26T08:02:35.970Z,13.30
2019-03-26T08:03:35.951Z,12.60
2019-03-26T08:04:35.972Z,15.00
2019-03-26T08:05:35.938Z,10.80
2019-03-26T08:06:35.928Z,15.80
2019-03-26T08:07:35.913Z,15.80
2019-03-26T08:08:35.972Z,17.40
2019-03-26T08:09:36.838Z,13.30
2019-03-26T08:10:35.881Z,12.90
2019-03-26T08:11:35.883Z,11.80
2019-03-26T08:12:35.872Z,12.90
2019-03-26T08:13:35.935Z,14.90
2019-03-26T08:14:35.886Z,11.60
2019-03-26T08:15:35.815Z,15.00
2019-03-26T08:16:35.824Z,18.20
2019-03-26T08:17:35.816Z,15.40
2019-03-26T08:18:35.791Z,19.30
2019-03-26T08:19:35.801Z,11.40
2019-03-26T08:20:35.767Z,12.60
2019-03-26T08:21:35.812Z,16.20
2019-03-26T08:22:35.753Z,12.00
2019-03-26T08:23:38.327Z,17.60
2019-03-26T08:24:35.817Z,16.00
2019-03-26T08:25:35.723Z,10.70
2019-03-26T08:26:35.706Z,15.80
2019-03-26T08:27:35.687Z,17.90
2019-03-26T08:28:35.695Z,15.80
2019-03-26T08:29:35.691Z,12.10
2019-03-26T08:30:35.653Z,12.90
2019-03-26T08:31:35.643Z,14.10
2019-03-26T08:32:37.045Z,15.30
2019-03-26T08:33:35.633Z,12.20
2019-03-26T08:34:35.641Z,14.60
2019-03-26T08:35:35.590Z,12.90
2019-03-26T08:36:35.687Z,15.20
2019-03-26T08:37:35.587Z,11.40
2019-03-26T08:38:35.574Z,12.80
2019-03-26T08:39:35.575Z,13.70
2019-03-26T08:40:35.554Z,13.90
2019-03-26T08:41:35.533Z,12.90
2019-03-26T08:42:35.546Z,14.60
2019-03-26T08:43:35.509Z,13.30
2019-03-26T08:44:35.517Z,14.10
2019-03-26T08:45:35.491Z,9.00
2019-03-26T08:46:35.474Z,12.40
2019-03-26T08:47:35.469Z,10.50
2019-03-26T08:48:35.457Z,12.70
2019-03-26T08:49:35.459Z,16.00
2019-03-26T08:50:35.461Z,10.90
2019-03-26T08:51:35.417Z,11.20
2019-03-26T08:52:35.409Z,10.50
2019-03-26T08:53:35.415Z,14.10
2019-03-26T08:54:35.427Z,14.60
2019-03-26T08:55:35.377Z,12.10
2019-03-26T08:56:35.408Z,15.50
2019-03-26T08:57:35.355Z,10.90
2019-03-26T08:58:35.347Z,10.90
2019-03-26T08:59:35.341Z,10.10
2019-03-26T09:00:35.341Z,11.40
2019-03-26T09:01:35.342Z,9.80
2019-03-26T09:02:35.312Z,9.90
2019-03-26T09:03:35.281Z,8.50
2019-03-26T09:04:35.271Z,7.00
2019-03-26T09:05:35.303Z,11.20
2019-03-26T09:06:35.251Z,9.00
2019-03-26T09:07:35.249Z,9.10
2019-03-26T09:08:35.230Z,11.60
2019-03-26T09:09:35.227Z,6.30
2019-03-26T09:10:35.230Z,9.00
2019-03-26T09:11:35.196Z,11.10
2019-03-26T09:12:35.192Z,8.20
2019-03-26T09:13:35.173Z,8.90
2019-03-26T09:14:35.174Z,8.00
2019-03-26T09:15:35.264Z,11.90
2019-03-26T09:16:35.147Z,12.60
2019-03-26T09:17:35.125Z,10.20
2019-03-26T09:18:35.129Z,7.20
2019-03-26T09:19:35.108Z,6.90
2019-03-26T09:20:35.115Z,10.50
2019-03-26T09:21:35.081Z,8.70
2019-03-26T09:22:35.081Z,10.50
2019-03-26T09:23:35.070Z,9.50
2019-03-26T09:24:35.057Z,8.60
2019-03-26T09:25:35.067Z,10.40
2019-03-26T09:26:35.024Z,10.20
2019-03-26T09:27:35.037Z,10.30
2019-03-26T09:28:35.006Z,9.80
2019-03-26T09:29:34.998Z,8.20
2019-03-26T09:30:35.084Z,8.10
2019-03-26T09:31:34.973Z,10.40
2019-03-26T09:32:34.963Z,7.70
2019-03-26T09:33:34.973Z,8.80
2019-03-26T09:34:34.939Z,10.20
2019-03-26T09:35:34.949Z,9.90
2019-03-26T09:36:34.942Z,7.90
2019-03-26T09:37:34.899Z,9.70
2019-03-26T09:38:39.072Z,11.40
2019-03-26T09:39:38.133Z,8.90
2019-03-26T09:40:34.894Z,8.90
2019-03-26T09:41:34.882Z,8.50
2019-03-26T09:42:34.859Z,10.50
2019-03-26T09:43:34.837Z,12.80
2019-03-26T09:44:34.825Z,8.40
2019-03-26T09:45:34.829Z,9.20
2019-03-26T09:46:34.811Z,9.60
2019-03-26T09:47:34.790Z,11.60
2019-03-26T09:48:34.789Z,12.70
2019-03-26T09:49:34.763Z,10.40
2019-03-26T09:50:34.786Z,8.10
2019-03-26T09:51:34.751Z,7.00
2019-03-26T09:52:34.759Z,7.30
2019-03-26T09:53:34.718Z,10.10
2019-03-26T09:54:34.725Z,8.80
2019-03-26T09:55:34.711Z,7.50
2019-03-26T09:56:34.716Z,9.00
2019-03-26T09:57:34.697Z,9.20
2019-03-26T09:58:34.663Z,7.40
2019-03-26T09:59:34.658Z,11.30
2019-03-26T10:00:34.748Z,8.00
2019-03-26T10:01:34.652Z,7.60
2019-03-26T10:02:34.631Z,9.30
2019-03-26T10:03:34.631Z,8.30
2019-03-26T10:04:34.600Z,7.40
2019-03-26T10:05:34.625Z,9.70
2019-03-26T10:06:34.600Z,8.40
2019-03-26T10:07:34.577Z,12.80
2019-03-26T10:08:34.557Z,8.60
2019-03-26T10:09:34.543Z,10.30
2019-03-26T10:10:34.523Z,7.90
2019-03-26T10:11:34.570Z,10.40
2019-03-26T10:12:34.510Z,7.90
2019-03-26T10:13:36.341Z,9.40
2019-03-26T10:14:34.486Z,8.90
2019-03-26T10:15:34.509Z,11.00
2019-03-26T10:16:34.479Z,13.50
2019-03-26T10:17:34.443Z,12.20
2019-03-26T10:18:34.447Z,12.40
2019-03-26T10:19:34.429Z,8.00
2019-03-26T10:20:34.433Z,10.60
2019-03-26T10:21:34.445Z,13.90
2019-03-26T10:22:34.401Z,12.30
2019-03-26T10:23:34.385Z,9.90
2019-03-26T10:24:34.380Z,8.80
2019-03-26T10:25:34.367Z,9.60
2019-03-26T10:26:34.380Z,8.30
2019-03-26T10:27:35.230Z,12.80
2019-03-26T10:28:34.345Z,8.40
2019-03-26T10:29:34.310Z,15.50
2019-03-26T10:30:34.312Z,8.80
2019-03-26T10:31:34.332Z,10.50
2019-03-26T10:32:34.292Z,11.90
2019-03-26T10:33:34.266Z,9.30
2019-03-26T10:34:36.533Z,13.20
2019-03-26T10:35:34.244Z,13.90
2019-03-26T10:36:34.274Z,12.00
2019-03-26T10:37:34.226Z,11.60
2019-03-26T10:38:34.223Z,10.60
2019-03-26T10:39:34.196Z,12.80
2019-03-26T10:40:34.192Z,10.80
2019-03-26T10:41:34.181Z,8.60
2019-03-26T10:42:34.196Z,8.40
2019-03-26T10:43:34.159Z,10.20
2019-03-26T10:44:34.150Z,11.30
2019-03-26T10:45:34.132Z,11.00
2019-03-26T10:46:34.121Z,7.00
2019-03-26T10:47:34.136Z,13.30
2019-03-26T10:48:34.129Z,9.40
2019-03-26T10:49:34.089Z,11.50
2019-03-26T10:50:34.078Z,10.00
2019-03-26T10:51:34.088Z,10.00
2019-03-26T10:52:34.252Z,8.90
2019-03-26T10:53:34.085Z,11.40
2019-03-26T10:54:34.038Z,6.50
2019-03-26T10:55:34.060Z,8.50
2019-03-26T10:56:34.008Z,7.20
2019-03-26T10:57:34.023Z,10.40
2019-03-26T10:58:33.986Z,11.60
2019-03-26T10:59:33.984Z,7.90
2019-03-26T11:00:33.964Z,8.30
2019-03-26T11:01:33.954Z,8.30
2019-03-26T11:02:33.968Z,11.10
2019-03-26T11:03:33.927Z,10.30
2019-03-26T11:04:33.923Z,9.90
2019-03-26T11:05:33.925Z,10.50
2019-03-26T11:06:33.897Z,10.10
2019-03-26T11:07:33.902Z,9.60
2019-03-26T11:08:33.888Z,8.30
2019-03-26T11:09:33.868Z,8.20
2019-03-26T11:10:33.858Z,10.50
2019-03-26T11:11:33.839Z,8.90
2019-03-26T11:12:33.841Z,10.20
2019-03-26T11:13:33.818Z,12.90
2019-03-26T11:14:33.807Z,8.70
2019-03-26T11:15:33.803Z,10.00
2019-03-26T11:16:33.811Z,9.80
2019-03-26T11:17:33.785Z,10.50
2019-03-26T11:18:33.761Z,13.00
2019-03-26T11:19:33.752Z,14.00
2019-03-26T11:20:33.742Z,13.00
2019-03-26T11:21:33.776Z,13.40
2019-03-26T11:22:33.759Z,12.00
2019-03-26T11:23:33.696Z,14.10
2019-03-26T11:24:33.693Z,10.90
2019-03-26T11:25:33.680Z,9.30
2019-03-26T11:26:33.820Z,9.30
2019-03-26T11:27:33.672Z,6.60
2019-03-26T11:28:33.637Z,7.20
2019-03-26T11:29:33.634Z,10.30
2019-03-26T11:30:33.636Z,8.80
2019-03-26T11:31:33.616Z,8.90
2019-03-26T11:32:33.666Z,9.50
2019-03-26T11:33:33.602Z,8.20
2019-03-26T11:34:33.583Z,13.90
2019-03-26T11:35:33.564Z,13.80
2019-03-26T11:36:33.584Z,14.80
2019-03-26T11:37:33.642Z,10.30
2019-03-26T11:38:33.534Z,10.40
2019-03-26T11:39:33.529Z,9.70
2019-03-26T11:40:33.507Z,7.50
2019-03-26T11:41:33.518Z,8.50
2019-03-26T11:42:33.497Z,7.50
2019-03-26T11:43:33.498Z,8.40
2019-03-26T11:44:33.463Z,7.70
2019-03-26T11:45:33.496Z,6.80
2019-03-26T11:46:33.437Z,7.80
2019-03-26T11:47:33.435Z,7.70
2019-03-26T11:48:33.442Z,9.00
2019-03-26T11:49:33.457Z,9.80
2019-03-26T11:50:33.399Z,13.00
2019-03-26T11:51:33.388Z,8.20
2019-03-26T11:52:33.376Z,6.70
2019-03-26T11:53:33.400Z,12.80
2019-03-26T11:54:33.360Z,7.00
2019-03-26T11:55:33.353Z,8.20
2019-03-26T11:56:33.323Z,6.60
2019-03-26T11:57:33.329Z,5.00
2019-03-26T11:58:33.349Z,8.50
2019-03-26T11:59:33.299Z,9.00
2019-03-26T12:00:33.291Z,5.90
2019-03-26T12:01:33.277Z,6.90
2019-03-26T12:02:33.376Z,3.50
2019-03-26T12:03:33.265Z,5.30
2019-03-26T12:04:33.240Z,6.70
2019-03-26T12:05:33.231Z,5.20
2019-03-26T12:06:33.219Z,6.30
2019-03-26T12:07:33.211Z,3.30
2019-03-26T12:08:33.222Z,5.70
2019-03-26T12:09:45.671Z,4.80
2019-03-26T12:10:34.203Z,4.10
2019-03-26T12:11:33.172Z,4.40
2019-03-26T12:12:33.161Z,3.30
2019-03-26T12:13:33.166Z,4.60
2019-03-26T12:14:33.127Z,3.20
2019-03-26T12:15:33.122Z,4.80
2019-03-26T12:16:33.100Z,4.90
2019-03-26T12:17:33.108Z,4.70
2019-03-26T12:18:33.103Z,8.80
2019-03-26T12:19:33.347Z,3.70
2019-03-26T12:20:33.056Z,4.30
2019-03-26T12:21:33.068Z,6.20
2019-03-26T12:22:33.038Z,5.70
2019-03-26T12:23:33.062Z,3.90
2019-03-26T12:24:33.011Z,4.60
2019-03-26T12:25:33.003Z,7.90
2019-03-26T12:26:32.982Z,5.00
2019-03-26T12:27:36.206Z,5.10
2019-03-26T12:28:33.018Z,5.20
2019-03-26T12:29:32.949Z,5.50
2019-03-26T12:30:32.947Z,5.80
2019-03-26T12:31:32.934Z,5.90
2019-03-26T12:32:32.928Z,6.10
2019-03-26T12:33:32.919Z,5.70
2019-03-26T12:34:32.927Z,4.60
2019-03-26T12:35:32.885Z,5.60
2019-03-26T12:36:39.926Z,5.70
2019-03-26T12:37:33.882Z,5.70
2019-03-26T12:38:32.851Z,4.30
2019-03-26T12:39:32.883Z,4.70
2019-03-26T12:40:32.863Z,3.90
2019-03-26T12:41:32.860Z,5.10
2019-03-26T12:42:32.815Z,4.30
2019-03-26T12:43:32.796Z,4.30
2019-03-26T12:44:32.812Z,3.20
2019-03-26T12:45:32.782Z,5.70
2019-03-26T12:46:32.762Z,4.90
2019-03-26T12:47:32.757Z,3.40
2019-03-26T12:48:32.766Z,5.00
2019-03-26T12:49:32.761Z,3.60
2019-03-26T12:50:32.727Z,3.80
2019-03-26T12:51:32.717Z,4.10
2019-03-26T12:52:32.698Z,3.50
2019-03-26T12:53:32.703Z,5.10
2019-03-26T12:54:32.694Z,4.20
2019-03-26T12:55:32.665Z,5.90
2019-03-26T12:56:32.658Z,4.70
2019-03-26T12:57:32.647Z,5.10
2019-03-26T12:58:36.306Z,6.10
2019-03-26T12:59:32.646Z,3.40
2019-03-26T13:00:32.612Z,3.60
2019-03-26T13:01:32.592Z,3.90
2019-03-26T13:02:35.623Z,5.30
2019-03-26T13:03:32.571Z,4.40
2019-03-26T13:04:32.601Z,3.90
2019-03-26T13:05:32.550Z,4.20
2019-03-26T13:06:32.539Z,3.90